createdAt,value
2022-12-23T00:01:24.521Z,8.97
2022-12-23T00:03:53.197Z,11.27
2022-12-23T00:06:21.738Z,8.93
2022-12-23T00:08:50.167Z,7.53
2022-12-23T00:11:19.863Z,9.10
2022-12-23T00:14:08.130Z,13.60
2022-12-23T00:16:37.590Z,10.93
2022-12-23T00:19:06.658Z,7.20
2022-12-23T00:21:36.228Z,7.27
2022-12-23T00:24:04.979Z,5.47
2022-12-23T00:26:33.342Z,4.20
2022-12-23T00:29:02.004Z,5.20
2022-12-23T00:31:31.098Z,5.03
2022-12-23T00:33:59.746Z,7.27
2022-12-23T00:36:29.448Z,6.30
2022-12-23T00:39:17.976Z,14.37
2022-12-23T00:42:05.232Z,7.23
2022-12-23T00:44:34.230Z,7.40
2022-12-23T00:47:03.240Z,5.00
2022-12-23T00:49:43.476Z,5.80
2022-12-23T00:52:13.531Z,9.97
2022-12-23T00:54:41.986Z,9.53
2022-12-23T00:57:10.563Z,9.40
2022-12-23T00:59:39.055Z,4.93
2022-12-23T01:02:25.756Z,9.43
2022-12-23T01:05:12.619Z,5.07
2022-12-23T01:07:42.645Z,6.43
2022-12-23T01:10:11.277Z,5.27
2022-12-23T01:12:39.663Z,6.07
2022-12-23T01:15:08.492Z,5.73
2022-12-23T01:17:36.757Z,5.90
2022-12-23T01:20:05.705Z,8.37
2022-12-23T01:22:34.070Z,8.57
2022-12-23T01:25:02.662Z,8.27
2022-12-23T01:27:31.007Z,6.03
2022-12-23T01:29:59.437Z,6.87
2022-12-23T01:32:27.823Z,7.63
2022-12-23T01:34:56.174Z,7.87
2022-12-23T01:37:24.528Z,10.60
2022-12-23T01:39:54.252Z,8.93
2022-12-23T01:42:40.882Z,19.97
2022-12-23T01:45:19.414Z,7.10
2022-12-23T01:47:58.851Z,15.33
2022-12-23T01:50:47.906Z,8.53
2022-12-23T01:53:21.791Z,10.83
2022-12-23T01:56:08.636Z,9.37
2022-12-23T01:59:38.823Z,9.60
2022-12-23T02:02:27.001Z,10.07
2022-12-23T02:04:56.301Z,17.37
2022-12-23T02:07:43.070Z,7.77
2022-12-23T02:10:12.468Z,11.90
2022-12-23T02:12:49.120Z,14.57
2022-12-23T02:15:59.289Z,23.90
2022-12-23T02:19:01.704Z,19.90
2022-12-23T02:21:53.115Z,19.57
2022-12-23T02:24:34.121Z,9.13
2022-12-23T02:27:36.186Z,7.93
2022-12-23T02:30:55.131Z,9.13
2022-12-23T02:33:39.543Z,5.57
2022-12-23T02:36:18.285Z,18.03
2022-12-23T02:39:02.865Z,7.87
2022-12-23T02:41:31.169Z,7.20
2022-12-23T02:44:36.708Z,5.90
2022-12-23T02:47:09.641Z,4.33
2022-12-23T02:49:44.934Z,8.07
2022-12-23T02:52:14.505Z,9.50
2022-12-23T02:54:51.492Z,7.50
2022-12-23T02:57:25.488Z,12.07
2022-12-23T02:59:53.787Z,16.50
2022-12-23T03:02:22.583Z,14.37
2022-12-23T03:04:51.589Z,12.83
2022-12-23T03:07:42.060Z,18.37
2022-12-23T03:10:44.139Z,12.67
2022-12-23T03:13:28.970Z,16.10
2022-12-23T03:16:24.526Z,9.73
2022-12-23T03:19:03.416Z,26.73
2022-12-23T03:21:40.804Z,18.03
2022-12-23T03:24:43.114Z,17.03
2022-12-23T03:27:16.376Z,11.30
2022-12-23T03:29:44.697Z,13.63
2022-12-23T03:32:13.603Z,17.03
2022-12-23T03:34:44.346Z,16.10
2022-12-23T03:37:14.463Z,16.43
2022-12-23T03:39:48.335Z,16.93
2022-12-23T03:42:37.289Z,19.40
2022-12-23T03:45:37.428Z,19.00
2022-12-23T03:48:01.265Z,13.07
2022-12-23T03:50:29.816Z,70.70
2022-12-23T03:53:13.958Z,26.47
2022-12-23T03:55:46.817Z,12.57
2022-12-23T03:58:22.817Z,8.43
2022-12-23T04:01:02.370Z,9.63
2022-12-23T04:03:59.696Z,24.37
2022-12-23T04:06:29.031Z,15.67
2022-12-23T04:08:57.542Z,15.97
2022-12-23T04:11:26.091Z,22.27
2022-12-23T04:13:55.012Z,24.63
2022-12-23T04:16:23.479Z,21.80
2022-12-23T04:18:53.175Z,22.97
2022-12-23T04:21:21.580Z,17.03
2022-12-23T04:23:50.512Z,19.40
2022-12-23T04:26:18.905Z,115.30
2022-12-23T04:28:47.339Z,57.77
2022-12-23T04:31:15.740Z,35.27
2022-12-23T04:33:44.988Z,35.33
2022-12-23T04:36:13.494Z,35.67
2022-12-23T04:38:41.826Z,28.73
2022-12-23T04:41:10.939Z,28.47
2022-12-23T04:43:39.976Z,31.77
2022-12-23T04:46:08.460Z,28.97
2022-12-23T04:48:36.841Z,31.83
2022-12-23T04:51:05.444Z,27.97
2022-12-23T04:53:36.303Z,34.67
2022-12-23T04:56:05.039Z,30.87
2022-12-23T04:58:33.450Z,55.30
2022-12-23T05:01:09.826Z,57.57
2022-12-23T05:03:38.665Z,36.37
2022-12-23T05:06:08.188Z,52.43
2022-12-23T05:08:36.757Z,39.23
2022-12-23T05:11:05.810Z,36.00
2022-12-23T05:13:34.324Z,29.60
2022-12-23T05:16:02.861Z,27.50
2022-12-23T05:18:31.220Z,39.27
2022-12-23T05:20:59.647Z,29.37
2022-12-23T05:23:28.042Z,25.07
2022-12-23T05:25:56.437Z,24.93
2022-12-23T05:28:24.957Z,21.87
2022-12-23T05:31:06.434Z,28.83
2022-12-23T05:33:35.537Z,29.77
2022-12-23T05:36:04.408Z,36.03
2022-12-23T05:38:32.935Z,35.07
2022-12-23T05:41:01.288Z,28.77
2022-12-23T05:43:29.638Z,42.43
2022-12-23T05:45:58.113Z,44.33
2022-12-23T05:48:26.659Z,36.03
2022-12-23T05:50:55.121Z,34.37
2022-12-23T05:53:24.875Z,32.27
2022-12-23T05:55:53.434Z,38.27
2022-12-23T05:58:21.926Z,34.70
2022-12-23T06:00:51.597Z,45.03
2022-12-23T06:03:20.172Z,42.63
2022-12-23T06:05:52.450Z,51.07
2022-12-23T06:08:21.067Z,49.50
2022-12-23T06:10:49.450Z,49.97
2022-12-23T06:13:18.560Z,48.77
2022-12-23T06:15:47.345Z,47.60
2022-12-23T06:18:15.725Z,51.60
2022-12-23T06:20:47.897Z,48.87
2022-12-23T06:23:16.404Z,49.27
2022-12-23T06:25:46.116Z,47.17
2022-12-23T06:28:14.509Z,40.73
2022-12-23T06:30:42.862Z,34.10
2022-12-23T06:33:11.301Z,35.27
2022-12-23T06:35:39.606Z,34.97
2022-12-23T06:38:12.008Z,57.83
2022-12-23T06:40:41.523Z,47.93
2022-12-23T06:43:11.718Z,53.70
2022-12-23T06:45:41.382Z,40.17
2022-12-23T06:48:09.782Z,66.33
2022-12-23T06:50:38.650Z,51.23
2022-12-23T06:53:07.169Z,63.20
2022-12-23T06:55:37.315Z,70.37
2022-12-23T06:58:06.081Z,60.53
2022-12-23T07:00:34.528Z,80.40
2022-12-23T07:03:03.857Z,83.80
2022-12-23T07:05:37.079Z,79.23
2022-12-23T07:08:06.305Z,81.10
2022-12-23T07:10:34.901Z,93.87
2022-12-23T07:13:03.939Z,78.43
2022-12-23T07:15:32.388Z,70.07
2022-12-23T07:18:01.503Z,87.47
2022-12-23T07:20:29.922Z,56.83
2022-12-23T07:22:59.032Z,70.43
2022-12-23T07:25:27.545Z,64.27
2022-12-23T07:27:56.125Z,64.77
2022-12-23T07:30:26.069Z,60.50
2022-12-23T07:32:54.484Z,93.93
2022-12-23T07:35:22.918Z,92.40
2022-12-23T07:37:53.271Z,96.33
2022-12-23T07:40:24.846Z,107.33
2022-12-23T07:42:57.681Z,97.33
2022-12-23T07:45:29.657Z,71.90
2022-12-23T07:47:59.949Z,58.20
2022-12-23T07:50:29.116Z,55.80
2022-12-23T07:52:57.522Z,43.73
2022-12-23T07:55:26.142Z,44.53
2022-12-23T07:57:54.586Z,31.43
2022-12-23T08:00:23.107Z,35.17
2022-12-23T08:02:51.673Z,30.80
2022-12-23T08:05:20.830Z,35.43
2022-12-23T08:07:50.968Z,37.93
2022-12-23T08:10:19.581Z,31.37
2022-12-23T08:12:48.265Z,37.97
2022-12-23T08:15:17.160Z,32.43
2022-12-23T08:17:45.722Z,35.73
2022-12-23T08:20:14.293Z,36.80
2022-12-23T08:22:49.856Z,32.20
2022-12-23T08:25:18.482Z,42.33
2022-12-23T08:27:46.900Z,35.50
2022-12-23T08:30:16.494Z,30.73
2022-12-23T08:32:44.912Z,34.23
2022-12-23T08:35:13.493Z,39.67
2022-12-23T08:37:41.923Z,55.73
2022-12-23T08:40:10.640Z,47.63
2022-12-23T08:42:40.315Z,48.13
2022-12-23T08:45:09.117Z,47.10
2022-12-23T08:47:37.547Z,54.43
2022-12-23T08:50:06.584Z,47.70
2022-12-23T08:52:35.023Z,57.47
2022-12-23T08:55:03.466Z,69.43
2022-12-23T08:57:32.541Z,69.00
2022-12-23T09:00:00.936Z,54.50
2022-12-23T09:02:29.563Z,62.07
2022-12-23T09:04:58.261Z,56.90
2022-12-23T09:07:26.701Z,61.07
2022-12-23T09:09:55.661Z,47.83
2022-12-23T09:12:24.113Z,48.50
2022-12-23T09:14:52.598Z,53.60
2022-12-23T09:17:21.068Z,55.47
2022-12-23T09:19:53.015Z,53.70
2022-12-23T09:22:21.867Z,52.93
2022-12-23T09:24:50.911Z,169.80
2022-12-23T09:27:19.370Z,102.17
2022-12-23T09:29:47.810Z,70.60
2022-12-23T09:32:16.795Z,58.27
2022-12-23T09:34:45.336Z,53.23
2022-12-23T09:37:16.776Z,43.87
2022-12-23T09:39:45.184Z,42.70
2022-12-23T09:42:28.554Z,41.93
2022-12-23T09:45:29.491Z,33.47
2022-12-23T09:47:58.139Z,32.07
2022-12-23T09:50:29.296Z,30.83
2022-12-23T09:52:59.886Z,34.87
2022-12-23T09:55:33.571Z,29.20
2022-12-23T09:58:07.177Z,34.13
2022-12-23T10:00:39.995Z,47.50
2022-12-23T10:03:22.925Z,35.97
2022-12-23T10:06:13.324Z,35.03
2022-12-23T10:08:54.221Z,26.13
2022-12-23T10:11:26.512Z,25.73
2022-12-23T10:14:13.506Z,24.17
2022-12-23T10:16:45.118Z,29.47
2022-12-23T10:19:41.903Z,23.93
2022-12-23T10:22:37.429Z,23.70
2022-12-23T10:25:34.256Z,34.13
2022-12-23T10:28:03.593Z,26.73
2022-12-23T10:30:57.189Z,17.67
2022-12-23T10:33:46.759Z,17.03
2022-12-23T10:36:22.268Z,20.83
2022-12-23T10:39:20.415Z,19.23
2022-12-23T10:42:11.550Z,18.57
2022-12-23T10:44:49.812Z,22.83
2022-12-23T10:47:23.400Z,71.50
2022-12-23T10:50:04.558Z,71.20
2022-12-23T10:52:35.237Z,69.23
2022-12-23T10:55:05.577Z,57.20
2022-12-23T10:57:34.024Z,59.10
2022-12-23T11:00:02.575Z,59.97
2022-12-23T11:02:52.660Z,87.17
2022-12-23T11:05:25.488Z,51.47
2022-12-23T11:07:53.869Z,42.20
2022-12-23T11:10:24.048Z,43.07
2022-12-23T11:12:55.598Z,38.20
2022-12-23T11:15:39.129Z,45.27
2022-12-23T11:18:13.427Z,39.40
2022-12-23T11:20:43.808Z,37.50
2022-12-23T11:23:30.343Z,43.53
2022-12-23T11:26:06.592Z,34.10
2022-12-23T11:28:38.000Z,44.20
2022-12-23T11:31:12.386Z,39.77
2022-12-23T11:33:58.322Z,34.33
2022-12-23T11:36:28.593Z,48.93
2022-12-23T11:39:10.587Z,39.67
2022-12-23T11:41:49.789Z,41.43
2022-12-23T11:44:34.439Z,44.20
2022-12-23T11:47:22.970Z,52.27
2022-12-23T11:49:55.974Z,36.70
2022-12-23T11:52:26.327Z,41.83
2022-12-23T11:54:56.810Z,50.87
2022-12-23T11:57:34.191Z,54.43
2022-12-23T12:00:05.257Z,62.10
2022-12-23T12:02:43.536Z,49.43
2022-12-23T12:05:52.036Z,51.97
2022-12-23T12:08:23.391Z,47.47
2022-12-23T12:10:52.579Z,62.23
2022-12-23T12:13:26.310Z,54.77
2022-12-23T12:15:55.722Z,56.73
2022-12-23T12:18:24.141Z,84.47
2022-12-23T12:20:56.454Z,78.83
2022-12-23T12:23:32.284Z,79.23
2022-12-23T12:26:03.140Z,95.93
2022-12-23T12:28:57.267Z,76.33
2022-12-23T12:31:38.439Z,85.73
2022-12-23T12:34:30.704Z,88.43
2022-12-23T12:37:11.648Z,74.80
2022-12-23T12:39:45.304Z,106.93
2022-12-23T12:42:21.635Z,91.20
2022-12-23T12:45:07.121Z,80.70
2022-12-23T12:47:58.174Z,64.40
2022-12-23T12:50:32.170Z,59.53
2022-12-23T12:53:10.963Z,45.40
2022-12-23T12:55:42.781Z,38.83
2022-12-23T12:58:20.352Z,34.83
2022-12-23T13:01:29.652Z,35.60
2022-12-23T13:04:16.712Z,42.10
2022-12-23T13:07:19.739Z,37.27
2022-12-23T13:09:48.348Z,47.60
2022-12-23T13:12:34.801Z,43.10
2022-12-23T13:15:19.019Z,56.47
2022-12-23T13:17:50.700Z,51.00
2022-12-23T13:20:30.798Z,60.63
2022-12-23T13:23:41.223Z,54.33
2022-12-23T13:26:00.376Z,54.23
2022-12-23T13:28:34.471Z,64.20
2022-12-23T13:31:16.507Z,63.63
2022-12-23T13:34:12.667Z,68.07
2022-12-23T13:36:50.609Z,66.40
2022-12-23T13:39:52.114Z,61.00
2022-12-23T13:42:42.583Z,59.80
2022-12-23T13:45:17.250Z,53.83
2022-12-23T13:48:09.259Z,48.33
2022-12-23T13:50:50.889Z,36.97
2022-12-23T13:53:51.551Z,35.20
2022-12-23T13:56:31.361Z,29.73
2022-12-23T13:58:59.798Z,31.73
2022-12-23T14:01:57.616Z,27.00
2022-12-23T14:04:36.180Z,23.33
2022-12-23T14:07:23.428Z,20.97
2022-12-23T14:09:57.407Z,19.63
2022-12-23T14:12:30.933Z,20.00
2022-12-23T14:15:15.267Z,23.87
2022-12-23T14:17:50.759Z,18.13
2022-12-23T14:20:32.114Z,11.80
2022-12-23T14:23:10.284Z,15.03
2022-12-23T14:26:16.944Z,19.27
2022-12-23T14:29:07.441Z,64.57
2022-12-23T14:31:46.627Z,53.57
2022-12-23T14:34:20.753Z,56.03
2022-12-23T14:37:25.824Z,57.47
2022-12-23T14:39:54.294Z,57.63
2022-12-23T14:42:42.479Z,59.90
2022-12-23T14:45:35.692Z,69.87
2022-12-23T14:48:34.647Z,69.07
2022-12-23T14:51:27.412Z,66.63
2022-12-23T14:53:58.868Z,52.50
2022-12-23T14:56:43.514Z,62.83
2022-12-23T14:59:14.420Z,62.83
2022-12-23T15:01:49.741Z,65.13
2022-12-23T15:04:18.139Z,64.63
2022-12-23T15:07:06.445Z,64.43
2022-12-23T15:10:00.673Z,52.30
2022-12-23T15:12:32.979Z,51.97
2022-12-23T15:15:21.966Z,50.20
2022-12-23T15:18:00.727Z,35.37
2022-12-23T15:20:29.364Z,44.17
2022-12-23T15:23:01.776Z,32.77
2022-12-23T15:25:34.451Z,35.97
2022-12-23T15:28:03.316Z,56.80
2022-12-23T15:30:35.688Z,44.60
2022-12-23T15:33:16.018Z,34.37
2022-12-23T15:35:54.317Z,29.70
2022-12-23T15:38:22.699Z,29.30
2022-12-23T15:41:14.395Z,26.13
2022-12-23T15:43:43.101Z,23.27
2022-12-23T15:46:25.027Z,29.03
2022-12-23T15:48:57.392Z,30.60
2022-12-23T15:51:58.241Z,28.30
2022-12-23T15:54:34.726Z,24.30
2022-12-23T15:57:03.503Z,23.97
2022-12-23T15:59:38.355Z,22.20
2022-12-23T16:02:40.534Z,28.40
2022-12-23T16:05:00.894Z,23.10
2022-12-23T16:07:36.351Z,19.97
2022-12-23T16:10:21.270Z,21.30
2022-12-23T16:12:54.032Z,23.97
2022-12-23T16:15:32.806Z,23.97
2022-12-23T16:18:19.835Z,30.97
2022-12-23T16:21:00.519Z,25.70
2022-12-23T16:23:35.585Z,26.13
2022-12-23T16:26:04.658Z,28.33
2022-12-23T16:28:38.512Z,35.40
2022-12-23T16:31:08.182Z,33.93
2022-12-23T16:33:53.675Z,32.17
2022-12-23T16:36:28.274Z,21.57
2022-12-23T16:38:58.486Z,19.73
2022-12-23T16:41:27.119Z,27.23
2022-12-23T16:43:55.545Z,18.73
2022-12-23T16:46:24.386Z,14.13
2022-12-23T16:49:05.111Z,14.60
2022-12-23T16:51:34.537Z,11.77
2022-12-23T16:54:03.130Z,11.43
2022-12-23T16:56:36.464Z,13.37
2022-12-23T16:59:05.153Z,11.03
2022-12-23T17:01:35.607Z,11.93
2022-12-23T17:04:05.401Z,23.50
2022-12-23T17:06:34.344Z,27.20
2022-12-23T17:09:04.093Z,27.33
2022-12-23T17:11:45.431Z,24.97
2022-12-23T17:14:22.835Z,27.33
2022-12-23T17:16:52.185Z,18.33
2022-12-23T17:19:27.884Z,16.27
2022-12-23T17:22:03.303Z,11.60
2022-12-23T17:24:33.501Z,12.90
2022-12-23T17:27:03.283Z,19.87
2022-12-23T17:29:32.157Z,70.13
2022-12-23T17:32:02.168Z,22.33
2022-12-23T17:34:31.467Z,19.57
2022-12-23T17:37:01.554Z,21.20
2022-12-23T17:39:30.765Z,21.00
2022-12-23T17:41:59.250Z,15.27
2022-12-23T17:44:31.551Z,27.33
2022-12-23T17:47:00.684Z,21.57
2022-12-23T17:49:35.194Z,21.63
2022-12-23T17:52:06.998Z,47.40
2022-12-23T17:54:35.757Z,22.47
2022-12-23T17:57:15.010Z,15.63
2022-12-23T17:59:47.701Z,14.80
2022-12-23T18:02:33.219Z,13.10
2022-12-23T18:05:27.246Z,14.67
2022-12-23T18:08:00.873Z,18.10
2022-12-23T18:10:31.975Z,13.83
2022-12-23T18:13:07.603Z,16.97
2022-12-23T18:15:40.068Z,31.07
2022-12-23T18:18:28.631Z,38.37
2022-12-23T18:21:04.546Z,61.63
2022-12-23T18:23:34.651Z,68.37
2022-12-23T18:26:03.159Z,59.07
2022-12-23T18:28:31.596Z,48.50
2022-12-23T18:31:00.273Z,59.23
2022-12-23T18:33:30.572Z,44.10
2022-12-23T18:35:59.173Z,45.53
2022-12-23T18:38:31.176Z,43.03
2022-12-23T18:40:59.854Z,39.10
2022-12-23T18:43:29.558Z,40.57
2022-12-23T18:45:58.146Z,54.47
2022-12-23T18:48:31.930Z,40.87
2022-12-23T18:51:00.653Z,39.70
2022-12-23T18:53:29.369Z,34.03
2022-12-23T18:55:57.865Z,27.47
2022-12-23T18:58:27.214Z,32.87
2022-12-23T19:00:57.197Z,25.47
2022-12-23T19:03:31.099Z,22.43
2022-12-23T19:06:07.530Z,23.37
2022-12-23T19:08:38.119Z,32.23
2022-12-23T19:11:12.937Z,18.17
2022-12-23T19:13:42.956Z,19.37
2022-12-23T19:16:17.575Z,13.07
2022-12-23T19:18:49.686Z,16.33
2022-12-23T19:21:21.228Z,14.83
2022-12-23T19:23:51.484Z,17.40
2022-12-23T19:26:22.671Z,15.83
2022-12-23T19:28:51.965Z,14.23
2022-12-23T19:31:23.620Z,13.53
2022-12-23T19:33:52.864Z,11.67
2022-12-23T19:36:25.432Z,23.03
2022-12-23T19:38:54.568Z,10.40
2022-12-23T19:41:23.439Z,13.03
2022-12-23T19:43:53.499Z,11.60
2022-12-23T19:46:23.294Z,10.33
2022-12-23T19:48:55.980Z,15.80
2022-12-23T19:51:25.578Z,10.60
2022-12-23T19:53:54.658Z,12.50
2022-12-23T19:56:23.193Z,14.87
2022-12-23T19:58:52.063Z,10.53
2022-12-23T20:01:24.266Z,13.73
2022-12-23T20:03:54.341Z,9.73
2022-12-23T20:06:26.745Z,14.40
2022-12-23T20:09:00.363Z,21.83
2022-12-23T20:11:34.870Z,24.27
2022-12-23T20:14:05.841Z,10.87
2022-12-23T20:16:36.196Z,15.40
2022-12-23T20:19:05.161Z,30.07
2022-12-23T20:21:35.015Z,26.13
2022-12-23T20:24:06.469Z,41.07
2022-12-23T20:26:35.198Z,24.53
2022-12-23T20:29:03.877Z,21.67
2022-12-23T20:31:34.363Z,22.80
2022-12-23T20:34:09.479Z,27.80
2022-12-23T20:36:38.683Z,24.80
2022-12-23T20:39:10.204Z,28.77
2022-12-23T20:41:38.682Z,24.37
2022-12-23T20:44:34.067Z,18.03
2022-12-23T20:46:56.164Z,18.10
2022-12-23T20:49:25.798Z,11.53
2022-12-23T20:51:55.325Z,11.47
2022-12-23T20:54:32.170Z,11.97
2022-12-23T20:57:02.942Z,9.87
2022-12-23T20:59:31.601Z,9.17
2022-12-23T21:02:02.349Z,11.60
2022-12-23T21:04:30.924Z,9.87
2022-12-23T21:07:03.087Z,7.70
2022-12-23T21:09:36.508Z,9.10
2022-12-23T21:12:05.083Z,7.37
2022-12-23T21:14:33.568Z,9.93
2022-12-23T21:17:01.976Z,6.30
2022-12-23T21:19:33.100Z,6.77
2022-12-23T21:22:01.751Z,7.97
2022-12-23T21:24:30.128Z,6.77
2022-12-23T21:26:58.584Z,9.60
2022-12-23T21:29:27.624Z,10.00
2022-12-23T21:31:56.291Z,7.83
2022-12-23T21:34:25.003Z,11.03
2022-12-23T21:36:53.715Z,8.03
2022-12-23T21:39:22.834Z,8.20
2022-12-23T21:41:51.730Z,10.90
2022-12-23T21:44:20.865Z,9.87
2022-12-23T21:46:51.328Z,6.43
2022-12-23T21:49:20.966Z,10.33
2022-12-23T21:51:50.233Z,10.27
2022-12-23T21:54:19.661Z,12.00
2022-12-23T21:56:48.603Z,9.33
2022-12-23T21:59:17.659Z,14.80
2022-12-23T22:01:46.199Z,7.93
2022-12-23T22:04:14.615Z,11.77
2022-12-23T22:06:46.843Z,8.47
2022-12-23T22:09:18.765Z,10.07
2022-12-23T22:11:47.948Z,7.20
2022-12-23T22:14:17.930Z,12.13
2022-12-23T22:16:47.069Z,8.53
2022-12-23T22:19:15.564Z,11.77
2022-12-23T22:21:44.056Z,10.80
2022-12-23T22:24:13.046Z,16.77
2022-12-23T22:26:42.121Z,20.70
2022-12-23T22:29:11.184Z,18.03
2022-12-23T22:31:45.492Z,36.13
2022-12-23T22:34:16.207Z,23.47
2022-12-23T22:36:44.715Z,34.07
2022-12-23T22:39:21.090Z,23.07
2022-12-23T22:41:51.155Z,17.13
2022-12-23T22:44:20.625Z,16.50
2022-12-23T22:46:50.193Z,12.03
2022-12-23T22:49:18.781Z,20.40
2022-12-23T22:51:47.193Z,13.10
2022-12-23T22:54:15.597Z,10.17
2022-12-23T22:56:46.110Z,9.60
2022-12-23T22:59:22.484Z,8.43
2022-12-23T23:01:52.732Z,12.67
2022-12-23T23:04:21.252Z,9.40
2022-12-23T23:06:49.694Z,9.07
2022-12-23T23:09:18.895Z,8.73
2022-12-23T23:11:47.405Z,14.47
2022-12-23T23:14:16.337Z,7.50
2022-12-23T23:16:44.914Z,9.20
2022-12-23T23:19:14.643Z,10.17
2022-12-23T23:21:43.706Z,10.50
2022-12-23T23:24:12.288Z,18.40
2022-12-23T23:26:41.142Z,23.60
2022-12-23T23:29:09.522Z,19.67
2022-12-23T23:31:42.727Z,40.20
2022-12-23T23:34:13.626Z,54.83
2022-12-23T23:36:42.228Z,38.37
2022-12-23T23:39:12.431Z,31.03
2022-12-23T23:41:42.925Z,35.33
2022-12-23T23:44:12.196Z,20.60
2022-12-23T23:46:40.679Z,18.63
2022-12-23T23:49:09.171Z,26.63
2022-12-23T23:51:38.346Z,20.37
2022-12-23T23:54:07.446Z,21.00
2022-12-23T23:56:38.539Z,15.53
2022-12-23T23:59:08.305Z,30.53
